Aviation weather information 2021-04-23 05:05 UTC

TAF(FCEO32)
FCEO32 EETN 230300
TAF EEKA 230300Z 2304/2310 34015G25KT 9999 BKN010 BKN020 TEMPO
     2304/2310 3000 SHRASN BKN004 BKN015CB TEMPO 2305/2310
     34020G30KT=
FCEO32 EETN 230300
TAF EEKE 230300Z 2304/2310 31012G25KT 9999 BKN008 BKN015 TEMPO
     2304/2310 3000 SHRASN BKN004 BKN015CB TEMPO 2305/2310
     32020G32KT=

TAF(FTEO31)
FTEO31 EETN 222300
TAF EETN 222330Z 2300/2324 16006KT 9999 SCT020 BKN045 TEMPO
     2300/2306 4000 SHRA BKN008 SCT020CB TEMPO 2306/2316 3000 SHRASN
     BKN004 BKN015CB BECMG 2308/2310 29012KT TEMPO 2318/2324 5000
     SHSNRA BKN006 SCT020CB=

TAF(FTEO33)
FTEO33 EEEI 222300
TAF EEEI 222300Z 2300/2324 15004KT 9999 FEW020 BKN030 TEMPO
     2303/2307 8000 SHRA BKN006 SCT020TCU BECMG 2307/2309 29012G22KT
     TEMPO 2307/2313 4000 SHRASN BKN006 SCT020TCU TEMPO 2313/2316
     FEW020 SCT050 BECMG 2316/2318 SCT030 BKN050= 

Weather observation (METAR/SPECI)
METAR EETN 230450Z 17005KT 9999 OVC009 03/01 Q1002 NOSIG=
METAR EEEI 230450Z 14004KT 9999 FEW007 BKN018 03/02 Q1002 NOSIG=
METAR EETU 230450Z AUTO 18010KT 9999 BKN059/// OVC080/// 03/M00
Q1003=
METAR EEPU 230450Z NIL=
METAR EEKE 230450Z 31010KT 280V340 9999 -RA BKN009 OVC012 03/02
Q1003=
METAR EEKA 230450Z 32010KT 9999 -RA OVC006 04/03 Q1002=